Fort Myers Beach, Florida
Current Conditions -  °F | °C
As of 6:53 AM on Saturday 25 Oct 2014 (Local Time) from KFMY Reporting Station
Clear Clear  
Wind Chill: 64°   Ceiling: Unl
Heat Index: 64°   Visibility: 10mi
Dew Point: 57°   Wind: 10mph
Humidity: 78%   Direction: 10°N
Pressure: 29.95"   Gusts: NA
Location:  26.45°N, 81.94°W
Report Text: KFMY 251053Z 01009KT 10SM CLR 18/14 A2995 RMK AO2 SLP142 T01780139
Loading
Personal Weather Stations






























Interactive Weather Map
Tropical Storm Tracking
New forecast layout! Learn more

10-Day Weather Forecast

Advertisements
Track Severe Weather on mobile